nws-alerts: Checking more than four warning/county codes can delay the loading of your pages. You should use a cron job to get the data.

Nearby METAR Reports

 

KFCI - Richmond/Chester, Virginia, USA
Distance from station: ESE 7mi, 11km
Updated: Tue, 13-Apr-2021 11:14am EDT
NOT Current
Mostly cloudy
Mostly cloudy
 Wind from NNE
Wind: NNE 12 mph , 19 km/h, Gust: 18 mph , 30 km/h
Temperature: 63°F , 17°C
Dew Point: 48°F , 9°C
Humidity: 59%
Barometer: 30.08 inHg , 1018.6 hPa
Clouds: Mostly cloudy
Visibility: 10 miles , 16 km
Cloud details: Mostly cloudy 2900 ft
2021/04/13 15:14 KFCI 131514Z AUTO 02010G16KT 350V060 10SM BKN029 17/09 A3008 RMK AO2 TSNO PNO $
KRIC - Richmond, Virginia, USA
Distance from station: ENE 19mi, 30km
Updated: Tue, 13-Apr-2021 7:54pm EDT
Partly cloudy
Partly cloudy
 Wind from E
Wind: E 3 mph , 6 km/h
Temperature: 63°F , 17°C
Dew Point: 46°F , 8°C
Humidity: 56%
Barometer: 30.05 inHg , 1017.6 hPa
Clouds: Partly cloudy
Visibility: 10 miles , 16 km
Cloud details: Partly cloudy 30000 ft
2021/04/13 23:54 KRIC 132354Z 10003KT 10SM SCT300 17/08 A3005 RMK AO2 SLP180 T01720083 10211 20167 53005
 
KPTB - Petersburg, Virginia, USA
Distance from station: SSE 19mi, 31km
Updated: Tue, 13-Apr-2021 8:55pm EDT
Clear
Clear
 Wind from calm
Wind: Calm
Temperature: 54°F , 12°C
Dew Point: 48°F , 9°C
Humidity: 82%
Barometer: 30.08 inHg , 1018.6 hPa
Clouds: Clear
Visibility: 10 miles , 16 km
2021/04/14 00:55 KPTB 140055Z AUTO 00000KT 10SM CLR 12/09 A3008 RMK AO2 T01220091
KOFP - Richmond/Hanover, Virginia, USA
Distance from station: NNE 22mi, 36km
Updated: Tue, 13-Apr-2021 7:54pm EDT
Clear
Clear
 Wind from calm
Wind: Calm
Temperature: 61°F , 16°C
Dew Point: 52°F , 11°C
Humidity: 72%
Barometer: 30.06 inHg , 1017.9 hPa
Clouds: Clear
Visibility: 10 miles , 16 km
2021/04/13 23:54 KOFP 132354Z AUTO 00000KT 10SM CLR 16/11 A3006 RMK AO2 SLP179 T01560106 10211 20156 53004
 
KW96 - Quinton, Virginia, USA
Distance from station: E 28mi, 46km
Updated: Tue, 13-Apr-2021 8:55pm EDT
Clear
Clear
 Wind from ESE
Wind: ESE 5 mph , 7 km/h
Temperature: 57°F , 14°C
Dew Point: 50°F , 10°C
Humidity: 77%
Barometer: 30.08 inHg , 1018.6 hPa
Clouds: Clear
Visibility: 10 miles , 16 km
2021/04/14 00:55 KW96 140055Z AUTO 12004KT 10SM CLR 14/10 A3008 RMK AO1 T01430095
KBKT - Blackstone Army, Virginia, USA
Distance from station: SW 30mi, 48km
Updated: Tue, 13-Apr-2021 8:35pm EDT
Clear
Clear
 Wind from SE
Wind: SE 7 mph , 11 km/h
Temperature: 61°F , 16°C
Dew Point: 48°F , 9°C
Humidity: 63%
Barometer: 30.06 inHg , 1017.9 hPa
Clouds: Clear
Visibility: 10 miles , 16 km
2021/04/14 00:35 KBKT 140035Z AUTO 13006KT 10SM CLR 16/09 A3006 RMK AO1 T01590085
 
KW81 - Crewe, Virginia, USA
Distance from station: SW 30mi, 49km
Updated: Tue, 13-Apr-2021 8:35pm EDT
Clear
Clear
 Wind from calm
Wind: Calm
Temperature: 61°F , 16°C
Dew Point: 45°F , 7°C
Humidity: 55%
Barometer: 30.06 inHg , 1017.9 hPa
Clouds: Clear
Visibility: 10 miles , 16 km
2021/04/14 00:35 KW81 140035Z AUTO 00000KT 10SM CLR 16/07 A3006 RMK AO1 T01550069
K7W4 - Bumpass, Virginia, USA
Distance from station: N 38mi, 61km
Updated: Tue, 13-Apr-2021 8:35pm EDT
Clear
Clear
 Wind from calm
Wind: Calm
Temperature: 57°F , 14°C
Dew Point: 48°F , 9°C
Humidity: 72%
Barometer: 30.07 inHg , 1018.3 hPa
Clouds: Clear
Visibility: 10 miles , 16 km
2021/04/14 00:35 K7W4 140035Z AUTO 00000KT 10SM CLR 14/09 A3007 RMK AO1 T01360089
 
KFVX - Farmville, Virginia, USA
Distance from station: W 43mi, 69km
Updated: Tue, 13-Apr-2021 8:35pm EDT
Clear
Clear
 Wind from calm
Wind: Calm
Temperature: 61°F , 16°C
Dew Point: 48°F , 9°C
Humidity: 63%
Barometer: 30.05 inHg , 1017.6 hPa
Clouds: Clear
Visibility: 10 miles , 16 km
2021/04/14 00:35 KFVX 140035Z AUTO 00000KT 10SM CLR 16/09 A3005 RMK AO2 T01640086
KW31 - Kenbridge, Virginia, USA
Distance from station: SW 43mi, 70km
Updated: Tue, 13-Apr-2021 8:55pm EDT
Clear
Clear
 Wind from calm
Wind: Calm
Temperature: 61°F , 16°C
Dew Point: 48°F , 9°C
Humidity: 63%
Barometer: 30.07 inHg , 1018.3 hPa
Clouds: Clear
Visibility: 10 miles , 16 km
2021/04/14 00:55 KW31 140055Z AUTO 00000KT 10SM CLR 16/09 A3007 RMK AO1 T01620092
 
KLKU - Louisa, Virginia, USA
Distance from station: NNW 44mi, 72km
Updated: Tue, 13-Apr-2021 8:35pm EDT
Clear
Clear
 Wind from E
Wind: E 5 mph , 7 km/h
Temperature: 54°F , 12°C
Dew Point: 50°F , 10°C
Humidity: 88%
Barometer: 30.11 inHg , 1019.6 hPa
Clouds: Clear
Visibility: 10 miles , 16 km
2021/04/14 00:35 KLKU 140035Z AUTO 10004KT 10SM CLR 12/10 A3011 RMK AO2 T01210097
KLVL - Lawrenceville, Virginia, USA
Distance from station: S 46mi, 75km
Updated: Tue, 13-Apr-2021 8:35pm EDT
Clear
Clear
 Wind from calm
Wind: Calm
Temperature: 61°F , 16°C
Dew Point: 48°F , 9°C
Humidity: 63%
Barometer: 30.07 inHg , 1018.3 hPa
Clouds: Clear
Visibility: 10 miles , 16 km
2021/04/14 00:35 KLVL 140035Z AUTO 00000KT 10SM CLR 16/09 A3007 RMK AO1 T01560086
 
KAKQ - Norfolk/Wakefld, Virginia, USA
Distance from station: SE 47mi, 75km
Updated: Tue, 13-Apr-2021 7:54pm EDT
Clear
Clear
 Wind from E
Wind: E 6 mph , 9 km/h
Temperature: 59°F , 15°C
Dew Point: 54°F , 12°C
Humidity: 82%
Barometer: 30.06 inHg , 1017.9 hPa
Clouds: Clear
Visibility: 10 miles , 16 km
2021/04/13 23:54 KAKQ 132354Z AUTO 09005KT 10SM CLR 15/12 A3006 RMK AO2 SLP181 T01500117 10206 20150 53005
KFYJ - West Point, Virginia, USA
Distance from station: E 48mi, 78km
Updated: Tue, 13-Apr-2021 8:35pm EDT
Clear
Clear
 Wind from SSE
Wind: SSE 5 mph , 7 km/h
Temperature: 54°F , 12°C
Dew Point: 48°F , 9°C
Humidity: 82%
Barometer: 30.08 inHg , 1018.6 hPa
Clouds: Clear
Visibility: 10 miles , 16 km
2021/04/14 00:35 KFYJ 140035Z AUTO 16004KT 10SM CLR 12/09 A3008 RMK AO1 T01240086